createdAt,value
2022-10-24T00:00:06.248Z,56.67
2022-10-24T00:01:10.996Z,56.67
2022-10-24T00:02:14.250Z,56.70
2022-10-24T00:03:16.597Z,56.70
2022-10-24T00:04:18.670Z,56.70
2022-10-24T00:05:20.792Z,56.70
2022-10-24T00:06:23.166Z,56.71
2022-10-24T00:07:26.456Z,56.71
2022-10-24T00:08:28.574Z,56.71
2022-10-24T00:09:32.949Z,56.73
2022-10-24T00:10:35.455Z,56.74
2022-10-24T00:11:41.140Z,56.74
2022-10-24T00:12:43.748Z,56.75
2022-10-24T00:13:46.208Z,56.77
2022-10-24T00:14:48.824Z,56.79
2022-10-24T00:15:50.814Z,56.79
2022-10-24T00:16:52.877Z,56.77
2022-10-24T00:17:54.903Z,56.77
2022-10-24T00:18:57.039Z,56.79
2022-10-24T00:19:59.134Z,56.81
2022-10-24T00:21:01.288Z,56.79
2022-10-24T00:22:03.610Z,56.82
2022-10-24T00:23:06.133Z,56.81
2022-10-24T00:24:09.226Z,56.82
2022-10-24T00:25:11.302Z,56.83
2022-10-24T00:26:14.155Z,56.83
2022-10-24T00:27:17.155Z,56.84
2022-10-24T00:28:19.590Z,56.83
2022-10-24T00:29:21.681Z,56.85
2022-10-24T00:30:23.768Z,56.89
2022-10-24T00:31:25.848Z,56.87
2022-10-24T00:32:27.938Z,56.88
2022-10-24T00:33:31.036Z,56.94
2022-10-24T00:34:34.530Z,56.96
2022-10-24T00:35:36.666Z,56.99
2022-10-24T00:36:38.933Z,57.02
2022-10-24T00:37:41.340Z,57.02
2022-10-24T00:38:43.431Z,57.04
2022-10-24T00:39:45.729Z,57.04
2022-10-24T00:40:50.019Z,57.04
2022-10-24T00:41:52.102Z,57.05
2022-10-24T00:42:54.701Z,57.04
2022-10-24T00:44:15.905Z,57.04
2022-10-24T00:46:41.330Z,57.06
2022-10-24T00:47:43.757Z,57.02
2022-10-24T00:48:52.521Z,57.06
2022-10-24T00:49:58.395Z,57.08
2022-10-24T00:51:02.731Z,57.11
2022-10-24T00:52:06.503Z,57.12
2022-10-24T00:53:08.609Z,57.18
2022-10-24T00:54:10.740Z,57.13
2022-10-24T00:55:13.721Z,57.19
2022-10-24T00:56:17.469Z,57.23
2022-10-24T00:58:35.945Z,57.28
2022-10-24T00:59:39.350Z,57.24
2022-10-24T01:00:41.624Z,57.24
2022-10-24T01:01:43.898Z,57.20
2022-10-24T01:02:46.345Z,57.19
2022-10-24T01:03:48.612Z,57.17
2022-10-24T01:04:50.966Z,57.15
2022-10-24T01:06:06.983Z,57.14
2022-10-24T01:07:31.296Z,57.15
2022-10-24T01:09:03.354Z,57.15
2022-10-24T01:10:41.463Z,57.10
2022-10-24T01:13:31.009Z,57.17
2022-10-24T01:14:54.546Z,57.19
2022-10-24T01:16:03.363Z,57.21
2022-10-24T01:17:15.663Z,57.26
2022-10-24T01:20:35.206Z,57.38
2022-10-24T01:21:53.608Z,57.39
2022-10-24T01:23:08.661Z,57.41
2022-10-24T01:24:37.174Z,57.46
2022-10-24T01:26:00.862Z,57.50
2022-10-24T01:27:33.213Z,57.52
2022-10-24T01:28:48.985Z,57.54
2022-10-24T01:30:13.201Z,57.53
2022-10-24T01:31:22.222Z,57.58
2022-10-24T01:33:53.399Z,57.73
2022-10-24T01:36:32.023Z,57.82
2022-10-24T01:38:57.096Z,57.84
2022-10-24T01:40:04.537Z,57.86
2022-10-24T01:41:09.866Z,57.82
2022-10-24T01:42:12.924Z,57.82
2022-10-24T01:43:17.413Z,57.89
2022-10-24T01:44:27.372Z,57.89
2022-10-24T01:45:32.817Z,57.83
2022-10-24T01:46:44.009Z,57.81
2022-10-24T01:47:50.152Z,57.76
2022-10-24T01:48:58.331Z,57.72
2022-10-24T01:50:02.769Z,57.68
2022-10-24T01:51:05.730Z,57.69
2022-10-24T01:52:09.743Z,57.67
2022-10-24T01:53:12.486Z,57.68
2022-10-24T01:54:14.819Z,57.67
2022-10-24T01:55:17.809Z,57.73
2022-10-24T01:56:20.570Z,57.68
2022-10-24T01:57:29.729Z,57.68
2022-10-24T01:58:31.868Z,57.67
2022-10-24T01:59:37.726Z,57.65
2022-10-24T02:00:40.950Z,57.72
2022-10-24T02:01:43.104Z,57.72
2022-10-24T02:04:02.782Z,57.76
2022-10-24T02:05:07.755Z,57.71
2022-10-24T02:06:13.005Z,57.73
2022-10-24T02:07:15.164Z,57.69
2022-10-24T02:08:22.887Z,57.68
2022-10-24T02:09:25.079Z,57.67
2022-10-24T02:10:29.487Z,57.66
2022-10-24T02:11:31.665Z,57.67
2022-10-24T02:12:33.744Z,57.65
2022-10-24T02:15:08.026Z,57.67
2022-10-24T02:16:11.106Z,57.62
2022-10-24T02:17:13.095Z,57.62
2022-10-24T02:18:15.197Z,57.59
2022-10-24T02:19:18.372Z,57.56
2022-10-24T02:22:01.997Z,57.54
2022-10-24T02:23:17.702Z,57.53
2022-10-24T02:24:26.457Z,57.53
2022-10-24T02:25:34.243Z,57.52
2022-10-24T02:26:55.458Z,57.54
2022-10-24T02:28:01.381Z,57.49
2022-10-24T02:29:10.197Z,57.50
2022-10-24T02:30:18.168Z,57.56
2022-10-24T02:31:22.014Z,57.56
2022-10-24T02:32:29.614Z,57.58
2022-10-24T02:33:31.742Z,57.60
2022-10-24T02:34:33.855Z,57.60
2022-10-24T02:35:36.629Z,57.61
2022-10-24T02:36:39.401Z,57.62
2022-10-24T02:38:55.744Z,57.63
2022-10-24T02:39:57.772Z,57.58
2022-10-24T02:41:01.985Z,57.63
2022-10-24T02:42:04.149Z,57.61
2022-10-24T02:43:08.544Z,57.65
2022-10-24T02:44:11.878Z,57.61
2022-10-24T02:45:14.225Z,57.62
2022-10-24T02:46:18.270Z,57.59
2022-10-24T02:47:20.622Z,57.57
2022-10-24T02:48:24.730Z,57.57
2022-10-24T02:49:27.790Z,57.54
2022-10-24T02:50:30.083Z,57.52
2022-10-24T02:51:34.835Z,57.56
2022-10-24T02:52:40.803Z,57.55
2022-10-24T02:53:44.356Z,57.52
2022-10-24T02:54:47.143Z,57.62
2022-10-24T02:55:49.599Z,57.58
2022-10-24T02:56:54.347Z,57.67
2022-10-24T02:57:56.440Z,57.67
2022-10-24T02:58:58.543Z,57.68
2022-10-24T03:00:02.055Z,57.72
2022-10-24T03:01:04.618Z,57.82
2022-10-24T03:02:07.190Z,57.86
2022-10-24T03:03:09.455Z,57.58
2022-10-24T03:04:12.333Z,57.58
2022-10-24T03:05:14.914Z,57.94
2022-10-24T03:06:17.631Z,58.05
2022-10-24T03:07:19.840Z,58.01
2022-10-24T03:08:22.374Z,58.20
2022-10-24T03:09:24.777Z,58.20
2022-10-24T03:10:27.738Z,58.06
2022-10-24T03:11:30.518Z,58.08
2022-10-24T03:12:33.457Z,58.11
2022-10-24T03:13:35.869Z,58.14
2022-10-24T03:14:38.514Z,58.09
2022-10-24T03:15:40.768Z,58.12
2022-10-24T03:16:43.143Z,58.15
2022-10-24T03:17:45.926Z,58.20
2022-10-24T03:18:49.286Z,58.19
2022-10-24T03:19:51.299Z,58.33
2022-10-24T03:20:53.955Z,58.28
2022-10-24T03:21:57.067Z,58.34
2022-10-24T03:22:59.563Z,58.32
2022-10-24T03:24:01.931Z,58.37
2022-10-24T03:25:05.389Z,58.34
2022-10-24T03:26:07.842Z,58.36
2022-10-24T03:27:10.615Z,58.36
2022-10-24T03:28:12.716Z,58.38
2022-10-24T03:29:14.812Z,58.45
2022-10-24T03:30:18.145Z,58.40
2022-10-24T03:31:20.224Z,58.37
2022-10-24T03:32:22.638Z,58.43
2022-10-24T03:33:26.032Z,58.37
2022-10-24T03:34:28.226Z,58.37
2022-10-24T03:35:30.204Z,58.53
2022-10-24T03:36:32.401Z,58.50
2022-10-24T03:37:34.685Z,58.52
2022-10-24T03:38:38.235Z,58.51
2022-10-24T03:39:40.393Z,58.46
2022-10-24T03:40:43.607Z,58.45
2022-10-24T03:41:46.525Z,58.41
2022-10-24T03:42:48.735Z,58.41
2022-10-24T03:43:50.885Z,58.41
2022-10-24T03:44:53.258Z,58.37
2022-10-24T03:45:55.271Z,58.39
2022-10-24T03:46:57.985Z,58.43
2022-10-24T03:48:00.833Z,58.40
2022-10-24T03:49:03.280Z,58.41
2022-10-24T03:50:07.404Z,58.40
2022-10-24T03:51:09.471Z,58.40
2022-10-24T03:52:13.221Z,58.37
2022-10-24T03:53:15.764Z,58.35
2022-10-24T03:54:18.639Z,58.34
2022-10-24T03:55:22.177Z,58.33
2022-10-24T03:56:26.865Z,58.35
2022-10-24T03:57:29.001Z,58.35
2022-10-24T03:58:30.999Z,58.35
2022-10-24T03:59:33.466Z,58.36
2022-10-24T04:00:36.398Z,58.35
2022-10-24T04:01:39.207Z,58.38
2022-10-24T04:02:43.848Z,58.36
2022-10-24T04:03:46.107Z,58.39
2022-10-24T04:04:49.551Z,58.36
2022-10-24T04:05:52.278Z,58.39
2022-10-24T04:06:55.580Z,58.39
2022-10-24T04:07:59.495Z,58.40
2022-10-24T04:09:01.569Z,58.40
2022-10-24T04:10:05.158Z,58.40
2022-10-24T04:11:07.687Z,58.40
2022-10-24T04:12:10.758Z,58.41
2022-10-24T04:13:12.777Z,58.41
2022-10-24T04:14:14.778Z,58.38
2022-10-24T04:15:18.101Z,58.39
2022-10-24T04:16:20.237Z,58.40
2022-10-24T04:17:23.084Z,58.36
2022-10-24T04:18:25.079Z,58.37
2022-10-24T04:19:27.313Z,58.40
2022-10-24T04:20:30.052Z,58.42
2022-10-24T04:21:32.069Z,58.42
2022-10-24T04:22:34.021Z,58.49
2022-10-24T04:23:36.508Z,58.57
2022-10-24T04:24:38.460Z,58.61
2022-10-24T04:25:40.440Z,58.66
2022-10-24T04:26:42.634Z,58.74
2022-10-24T04:27:45.162Z,58.81
2022-10-24T04:28:47.383Z,59.02
2022-10-24T04:29:49.477Z,59.14
2022-10-24T04:32:06.613Z,59.55
2022-10-24T04:33:08.816Z,59.59
2022-10-24T04:34:12.976Z,59.76
2022-10-24T04:35:15.454Z,59.83
2022-10-24T04:36:18.588Z,59.89
2022-10-24T04:37:20.690Z,59.96
2022-10-24T04:38:22.688Z,60.06
2022-10-24T04:39:24.788Z,60.10
2022-10-24T04:40:27.191Z,60.17
2022-10-24T04:41:30.517Z,60.18
2022-10-24T04:42:33.690Z,60.25
2022-10-24T04:43:36.905Z,60.30
2022-10-24T04:44:39.531Z,60.29
2022-10-24T04:45:43.687Z,60.29
2022-10-24T04:46:50.586Z,60.27
2022-10-24T04:47:50.941Z,60.31
2022-10-24T04:48:52.910Z,60.31
2022-10-24T04:49:55.658Z,60.29
2022-10-24T04:50:58.026Z,60.31
2022-10-24T04:52:01.234Z,60.31
2022-10-24T04:53:03.358Z,60.36
2022-10-24T04:54:06.209Z,60.34
2022-10-24T04:55:08.601Z,60.34
2022-10-24T04:56:11.073Z,60.46
2022-10-24T04:57:13.148Z,60.43
2022-10-24T04:58:16.218Z,60.50
2022-10-24T04:59:19.305Z,60.55
2022-10-24T05:00:21.687Z,60.58
2022-10-24T05:01:24.153Z,60.64
2022-10-24T05:02:27.103Z,60.64
2022-10-24T05:03:30.736Z,60.67
2022-10-24T05:04:33.374Z,60.68
2022-10-24T05:05:36.634Z,60.69
2022-10-24T05:06:40.352Z,60.68
2022-10-24T05:07:45.005Z,60.68
2022-10-24T05:08:47.377Z,60.70
2022-10-24T05:09:49.841Z,60.69
2022-10-24T05:10:52.034Z,60.72
2022-10-24T05:11:55.216Z,60.70
2022-10-24T05:12:57.879Z,60.72
2022-10-24T05:14:00.470Z,60.72
2022-10-24T05:15:04.393Z,60.70
2022-10-24T05:16:07.315Z,60.68
2022-10-24T05:17:09.421Z,60.69
2022-10-24T05:18:11.729Z,60.64
2022-10-24T05:19:14.103Z,60.64
2022-10-24T05:20:16.494Z,60.63
2022-10-24T05:21:18.515Z,60.61
2022-10-24T05:22:21.598Z,60.96
2022-10-24T05:23:25.929Z,60.96
2022-10-24T05:24:28.442Z,60.69
2022-10-24T05:25:32.669Z,60.70
2022-10-24T05:26:34.795Z,60.68
2022-10-24T05:27:37.251Z,60.64
2022-10-24T05:28:39.831Z,60.64
2022-10-24T05:29:41.818Z,60.61
2022-10-24T05:30:44.970Z,60.61
2022-10-24T05:31:48.186Z,60.58
2022-10-24T05:32:50.828Z,60.61
2022-10-24T05:33:53.577Z,60.55
2022-10-24T05:34:56.332Z,60.52
2022-10-24T05:35:58.530Z,60.49
2022-10-24T05:37:00.949Z,60.47
2022-10-24T05:38:03.037Z,60.44
2022-10-24T05:39:06.178Z,60.43
2022-10-24T05:40:10.153Z,60.41
2022-10-24T05:41:12.730Z,60.39
2022-10-24T05:42:14.897Z,60.36
2022-10-24T05:43:17.003Z,60.33
2022-10-24T05:44:18.971Z,60.32
2022-10-24T05:45:22.037Z,60.30
2022-10-24T05:46:24.274Z,60.30
2022-10-24T05:47:28.477Z,60.23
2022-10-24T05:48:30.465Z,60.21
2022-10-24T05:49:33.271Z,60.20
2022-10-24T05:50:35.984Z,60.16
2022-10-24T05:51:39.005Z,60.15
2022-10-24T05:52:44.695Z,60.19
2022-10-24T05:53:45.052Z,60.16
2022-10-24T05:54:55.721Z,60.17
2022-10-24T05:55:51.299Z,60.14
2022-10-24T05:56:54.897Z,60.11
2022-10-24T05:57:57.813Z,60.08
2022-10-24T05:59:00.270Z,60.11
2022-10-24T06:00:05.789Z,60.05
2022-10-24T06:01:09.974Z,60.00
2022-10-24T06:02:20.169Z,59.99
2022-10-24T06:03:22.554Z,59.98
2022-10-24T06:04:25.992Z,59.96
2022-10-24T06:05:28.054Z,59.92
2022-10-24T06:06:30.350Z,59.92
2022-10-24T06:07:32.905Z,59.92
2022-10-24T06:08:36.984Z,59.92
2022-10-24T06:09:40.450Z,59.86
2022-10-24T06:10:47.433Z,59.83
2022-10-24T06:11:50.713Z,59.83
2022-10-24T06:12:53.717Z,59.81
2022-10-24T06:13:56.276Z,59.78
2022-10-24T06:14:59.062Z,59.76
2022-10-24T06:16:01.199Z,59.78
2022-10-24T06:17:04.399Z,59.79
2022-10-24T06:18:06.527Z,59.76
2022-10-24T06:19:08.618Z,59.75
2022-10-24T06:20:11.107Z,59.84
2022-10-24T06:21:13.238Z,59.76
2022-10-24T06:22:15.826Z,59.74
2022-10-24T06:23:18.296Z,59.69
2022-10-24T06:24:21.308Z,59.64
2022-10-24T06:25:23.942Z,59.62
2022-10-24T06:26:26.448Z,59.65
2022-10-24T06:27:28.544Z,59.58
2022-10-24T06:28:30.676Z,59.55
2022-10-24T06:29:33.211Z,59.62
2022-10-24T06:30:35.502Z,59.58
2022-10-24T06:31:37.584Z,59.57
2022-10-24T06:32:42.204Z,59.47
2022-10-24T06:33:44.181Z,59.47
2022-10-24T06:34:47.020Z,59.43
2022-10-24T06:35:50.352Z,59.45
2022-10-24T06:36:53.549Z,59.40
2022-10-24T06:37:55.811Z,59.36
2022-10-24T06:38:58.727Z,59.37
2022-10-24T06:40:01.459Z,59.33
2022-10-24T06:41:09.054Z,59.30
2022-10-24T06:42:11.207Z,59.30
2022-10-24T06:43:14.290Z,59.24
2022-10-24T06:44:18.059Z,59.25
2022-10-24T06:45:21.243Z,59.22
2022-10-24T06:46:24.235Z,59.00
2022-10-24T06:47:26.517Z,59.00
2022-10-24T06:48:28.672Z,59.20
2022-10-24T06:49:31.311Z,59.20
2022-10-24T06:50:33.684Z,59.19
2022-10-24T06:51:35.695Z,59.19
2022-10-24T06:52:38.728Z,59.16
2022-10-24T06:53:41.281Z,59.17
2022-10-24T06:54:43.386Z,59.13
2022-10-24T06:55:46.949Z,59.12
2022-10-24T06:56:49.013Z,59.09
2022-10-24T06:57:53.282Z,59.09
2022-10-24T06:58:55.959Z,59.10
2022-10-24T06:59:58.718Z,59.08
2022-10-24T07:02:22.926Z,59.13
2022-10-24T07:03:25.150Z,59.12
2022-10-24T07:04:28.119Z,59.15
2022-10-24T07:05:32.244Z,59.23
2022-10-24T07:06:34.496Z,59.18
2022-10-24T07:07:36.597Z,59.16
2022-10-24T07:08:38.690Z,59.20
2022-10-24T07:09:41.788Z,59.18
2022-10-24T07:10:45.221Z,59.16
2022-10-24T07:11:48.129Z,59.13
2022-10-24T07:12:50.877Z,59.09
2022-10-24T07:13:56.652Z,59.08
2022-10-24T07:14:57.821Z,59.08
2022-10-24T07:16:00.775Z,59.02
2022-10-24T07:17:03.681Z,59.03
2022-10-24T07:18:05.839Z,59.03
2022-10-24T07:19:08.087Z,59.00
2022-10-24T07:20:12.560Z,59.00
2022-10-24T07:21:20.608Z,59.00
2022-10-24T07:22:23.255Z,58.99
2022-10-24T07:23:25.351Z,59.02
2022-10-24T07:24:29.904Z,59.02
2022-10-24T07:25:33.185Z,59.04
2022-10-24T07:26:35.926Z,59.04
2022-10-24T07:27:38.268Z,59.03
2022-10-24T07:28:40.465Z,59.03
2022-10-24T07:29:43.546Z,59.00
2022-10-24T07:30:47.051Z,59.04
2022-10-24T07:31:49.089Z,59.04
2022-10-24T07:32:51.185Z,59.03
2022-10-24T07:33:53.285Z,59.01
2022-10-24T07:34:55.843Z,59.00
2022-10-24T07:35:57.921Z,59.00
2022-10-24T07:37:00.141Z,58.98
2022-10-24T07:38:02.655Z,58.97
2022-10-24T07:39:04.675Z,58.98
2022-10-24T07:40:09.012Z,59.01
2022-10-24T07:41:11.078Z,58.97
2022-10-24T07:42:14.141Z,59.03
2022-10-24T07:43:18.082Z,59.06
2022-10-24T07:44:20.683Z,59.11
2022-10-24T07:45:23.329Z,59.17
2022-10-24T07:46:26.700Z,59.17
2022-10-24T07:47:29.855Z,59.16
2022-10-24T07:48:31.988Z,59.16
2022-10-24T07:49:34.959Z,59.10
2022-10-24T07:50:44.527Z,59.11
2022-10-24T07:51:47.717Z,59.05
2022-10-24T07:52:49.932Z,59.03
2022-10-24T07:53:52.073Z,59.06
2022-10-24T07:54:55.815Z,59.05
2022-10-24T07:55:58.626Z,58.97
2022-10-24T07:57:00.850Z,58.97
2022-10-24T07:58:03.771Z,59.00
2022-10-24T07:59:09.398Z,59.00
2022-10-24T08:00:12.531Z,59.06
2022-10-24T08:01:17.511Z,59.04
2022-10-24T08:02:21.147Z,59.03
2022-10-24T08:03:24.589Z,59.05
2022-10-24T08:04:27.067Z,59.02
2022-10-24T08:05:29.088Z,59.16
2022-10-24T08:06:32.079Z,58.99
2022-10-24T08:07:36.747Z,58.97
2022-10-24T08:08:39.551Z,59.00
2022-10-24T08:09:45.178Z,59.04
2022-10-24T08:10:49.525Z,59.03
2022-10-24T08:11:52.015Z,59.05
2022-10-24T08:13:04.205Z,59.06
2022-10-24T08:14:07.236Z,59.03
2022-10-24T08:15:11.193Z,59.02
2022-10-24T08:16:15.605Z,58.96
2022-10-24T08:17:17.584Z,58.93
2022-10-24T08:18:19.672Z,58.93
2022-10-24T08:19:22.332Z,58.88
2022-10-24T08:20:25.151Z,58.83
2022-10-24T08:21:28.570Z,58.72
2022-10-24T08:22:31.061Z,58.69
2022-10-24T08:23:33.761Z,58.64
2022-10-24T08:24:36.778Z,58.53
2022-10-24T08:25:40.761Z,58.44
2022-10-24T08:26:43.871Z,58.35
2022-10-24T08:27:47.351Z,58.22
2022-10-24T08:28:51.325Z,58.15
2022-10-24T08:29:54.178Z,58.11
2022-10-24T08:31:01.753Z,58.03
2022-10-24T08:32:05.265Z,57.98
2022-10-24T08:33:07.450Z,57.94
2022-10-24T08:34:09.839Z,57.92
2022-10-24T08:35:18.022Z,57.92
2022-10-24T08:36:29.394Z,57.88
2022-10-24T08:37:32.612Z,57.86
2022-10-24T08:38:34.905Z,57.81
2022-10-24T08:39:37.769Z,57.81
2022-10-24T08:40:41.020Z,57.83
2022-10-24T08:41:46.465Z,57.83
2022-10-24T08:42:49.034Z,57.82
2022-10-24T08:43:53.055Z,57.77
2022-10-24T08:44:56.849Z,57.77
2022-10-24T08:46:06.060Z,57.76
2022-10-24T08:48:50.502Z,57.71
2022-10-24T08:50:02.684Z,57.66
2022-10-24T08:51:14.847Z,57.62
2022-10-24T08:52:43.476Z,57.63
2022-10-24T08:53:46.211Z,57.63
2022-10-24T08:54:48.293Z,57.60
2022-10-24T08:55:56.617Z,57.62
2022-10-24T08:57:00.026Z,57.66
2022-10-24T08:58:02.141Z,57.66
2022-10-24T08:59:05.250Z,57.68
2022-10-24T09:01:32.308Z,57.62
2022-10-24T09:02:36.361Z,57.61
2022-10-24T09:03:57.573Z,57.60
2022-10-24T09:05:11.136Z,57.60
2022-10-24T09:06:22.376Z,57.49
2022-10-24T09:07:25.847Z,57.48
2022-10-24T09:08:46.955Z,57.44
2022-10-24T09:09:51.574Z,57.43
2022-10-24T09:10:59.241Z,57.40
2022-10-24T09:12:03.099Z,57.39
2022-10-24T13:22:50.174Z,70.47
2022-10-24T13:23:52.503Z,70.58
2022-10-24T13:24:54.987Z,70.42
2022-10-24T13:25:57.927Z,70.29
2022-10-24T13:27:11.907Z,70.12
2022-10-24T13:28:20.995Z,70.07
2022-10-24T13:29:26.830Z,69.75
2022-10-24T13:30:29.349Z,69.32
2022-10-24T13:31:35.262Z,68.91
2022-10-24T13:32:38.819Z,68.57
2022-10-24T13:33:42.607Z,68.20
2022-10-24T13:34:53.166Z,67.82
2022-10-24T13:37:26.954Z,66.54
2022-10-24T13:38:29.632Z,66.41
2022-10-24T13:39:37.533Z,65.33
2022-10-24T13:40:38.730Z,65.33
2022-10-24T13:41:49.014Z,64.76
2022-10-24T13:42:53.600Z,64.44
2022-10-24T13:43:58.531Z,64.20
2022-10-24T13:45:13.352Z,63.60
2022-10-24T13:47:42.815Z,62.55
2022-10-24T13:48:46.350Z,62.55
2022-10-24T13:51:15.714Z,61.95
2022-10-24T13:53:51.482Z,61.38
2022-10-24T13:54:57.813Z,61.36
2022-10-24T13:56:03.821Z,61.17
2022-10-24T13:57:23.872Z,61.30
2022-10-24T13:58:26.413Z,61.42
2022-10-24T13:59:33.397Z,61.31
2022-10-24T14:01:51.306Z,61.45
2022-10-24T14:02:54.756Z,61.72
2022-10-24T14:03:57.134Z,61.62
2022-10-24T14:05:01.145Z,61.49
2022-10-24T14:06:04.653Z,61.68
2022-10-24T14:07:08.359Z,61.56
2022-10-24T14:08:20.487Z,61.55
2022-10-24T14:09:24.146Z,61.49
2022-10-24T14:10:26.535Z,62.97
2022-10-24T14:11:29.178Z,63.67
2022-10-24T14:12:33.267Z,63.60
2022-10-24T14:13:38.807Z,63.75
2022-10-24T14:14:40.941Z,64.02
2022-10-24T14:17:24.047Z,64.12
2022-10-24T14:18:26.936Z,64.08
2022-10-24T14:19:32.018Z,63.61
2022-10-24T14:20:37.127Z,63.61
2022-10-24T14:21:41.182Z,63.96
2022-10-24T14:22:43.785Z,63.76
2022-10-24T14:25:35.470Z,63.62
2022-10-24T14:27:41.961Z,63.31
2022-10-24T14:28:45.646Z,63.25
2022-10-24T14:31:09.034Z,63.09
2022-10-24T14:32:13.237Z,62.95
2022-10-24T14:33:19.146Z,62.85
2022-10-24T14:34:21.700Z,62.69
2022-10-24T14:35:23.885Z,62.57
2022-10-24T14:36:30.776Z,62.58
2022-10-24T14:37:41.655Z,62.53
2022-10-24T14:38:44.284Z,62.41
2022-10-24T14:39:46.742Z,62.27
2022-10-24T14:41:01.272Z,62.16
2022-10-24T14:41:53.627Z,62.18
2022-10-24T14:42:55.653Z,62.11
2022-10-24T14:43:58.053Z,62.12
2022-10-24T14:45:03.547Z,62.05
2022-10-24T14:46:15.946Z,62.02
2022-10-24T14:47:26.969Z,62.03
2022-10-24T14:48:31.103Z,61.84
2022-10-24T14:50:46.804Z,60.73
2022-10-24T14:52:56.077Z,60.09
2022-10-24T14:53:59.323Z,59.79
2022-10-24T14:55:05.054Z,59.48
2022-10-24T14:57:44.049Z,58.89
2022-10-24T14:58:46.810Z,58.86
2022-10-24T14:59:50.559Z,58.93
2022-10-24T15:00:53.641Z,58.92
2022-10-24T15:02:00.142Z,59.01
2022-10-24T15:03:02.361Z,59.08
2022-10-24T15:04:05.468Z,59.14
2022-10-24T15:06:38.823Z,58.95
2022-10-24T15:07:52.261Z,58.94
2022-10-24T15:08:46.546Z,58.96
2022-10-24T15:09:55.085Z,58.98
2022-10-24T15:11:03.483Z,58.89
2022-10-24T15:12:10.639Z,58.95
2022-10-24T15:14:37.032Z,58.85
2022-10-24T15:15:53.728Z,58.85
2022-10-24T15:16:56.563Z,58.93
2022-10-24T15:18:07.551Z,59.01
2022-10-24T15:20:26.455Z,59.04
2022-10-24T15:21:33.025Z,59.02
2022-10-24T15:22:36.262Z,59.08
2022-10-24T15:23:56.833Z,59.10
2022-10-24T15:25:01.024Z,59.06
2022-10-24T15:26:12.132Z,59.00
2022-10-24T15:27:22.210Z,58.98
2022-10-24T15:29:50.674Z,58.80
2022-10-24T15:30:53.935Z,58.72
2022-10-24T15:31:55.914Z,58.75
2022-10-24T15:33:00.579Z,58.75
2022-10-24T15:34:05.321Z,58.63
2022-10-24T15:35:07.696Z,58.49
2022-10-24T15:36:19.760Z,58.48
2022-10-24T15:37:23.252Z,58.41
2022-10-24T15:38:26.378Z,58.20
2022-10-24T15:39:28.750Z,58.22
2022-10-24T15:40:33.196Z,58.07
2022-10-24T15:41:36.125Z,57.90
2022-10-24T15:42:38.329Z,57.93
2022-10-24T15:43:40.920Z,57.81
2022-10-24T15:44:44.331Z,57.76
2022-10-24T15:45:48.617Z,57.79
2022-10-24T15:46:51.681Z,57.67
2022-10-24T15:47:53.743Z,57.69
2022-10-24T15:48:56.746Z,57.66
2022-10-24T15:50:00.204Z,57.68
2022-10-24T15:51:03.827Z,57.61
2022-10-24T15:52:08.254Z,57.84
2022-10-24T15:54:26.521Z,57.40
2022-10-24T15:55:29.422Z,57.37
2022-10-24T15:56:32.439Z,57.33
2022-10-24T15:57:34.881Z,57.28
2022-10-24T15:58:40.234Z,57.26
2022-10-24T15:59:43.518Z,57.22
2022-10-24T16:00:46.860Z,57.09
2022-10-24T16:01:56.659Z,57.03
2022-10-24T16:02:58.931Z,56.97
2022-10-24T16:04:02.103Z,56.84
2022-10-24T16:05:06.041Z,56.97
2022-10-24T16:06:09.127Z,57.22
2022-10-24T16:07:12.640Z,57.39
2022-10-24T16:08:16.307Z,57.09
2022-10-24T16:09:21.056Z,57.27
2022-10-24T16:10:25.261Z,57.33
2022-10-24T16:11:28.034Z,57.81
2022-10-24T16:12:30.618Z,57.91
2022-10-24T16:13:33.672Z,57.99
2022-10-24T16:14:35.723Z,58.08
2022-10-24T16:15:41.653Z,58.34
2022-10-24T16:16:45.701Z,58.43
2022-10-24T16:17:48.684Z,58.44
2022-10-24T16:18:51.160Z,58.54
2022-10-24T16:19:53.338Z,58.64
2022-10-24T16:20:57.350Z,58.58
2022-10-24T16:21:59.431Z,58.63
2022-10-24T16:23:01.632Z,58.73
2022-10-24T16:24:04.471Z,58.59
2022-10-24T16:25:23.114Z,58.42
2022-10-24T16:26:25.451Z,58.16
2022-10-24T16:27:28.004Z,58.23
2022-10-24T16:28:30.191Z,58.33
2022-10-24T16:29:32.358Z,58.24
2022-10-24T16:30:36.254Z,58.30
2022-10-24T16:31:38.898Z,58.37
2022-10-24T16:32:40.988Z,58.35
2022-10-24T16:33:42.999Z,58.35
2022-10-24T16:34:45.013Z,58.49
2022-10-24T16:35:48.579Z,58.47
2022-10-24T16:36:54.311Z,58.57
2022-10-24T16:37:58.208Z,58.58
2022-10-24T16:39:01.280Z,58.67
2022-10-24T16:40:04.795Z,58.71
2022-10-24T16:41:07.017Z,58.73
2022-10-24T16:42:09.774Z,58.71
2022-10-24T16:43:13.687Z,58.71
2022-10-24T16:44:17.995Z,58.72
2022-10-24T16:45:20.789Z,58.77
2022-10-24T16:46:24.351Z,58.73
2022-10-24T16:47:27.010Z,58.71
2022-10-24T16:48:29.845Z,58.72
2022-10-24T16:49:33.445Z,58.69
2022-10-24T16:50:36.796Z,58.57
2022-10-24T16:51:43.226Z,58.45
2022-10-24T16:52:43.094Z,58.45
2022-10-24T16:53:46.303Z,58.56
2022-10-24T16:54:48.971Z,58.57
2022-10-24T16:55:53.545Z,58.55
2022-10-24T16:56:56.930Z,58.57
2022-10-24T16:57:59.445Z,58.54
2022-10-24T16:59:02.065Z,58.56
2022-10-24T17:00:06.049Z,58.57
2022-10-24T17:01:10.369Z,58.59
2022-10-24T17:02:13.168Z,58.60
2022-10-24T17:03:16.341Z,58.58
2022-10-24T17:04:18.523Z,58.60
2022-10-24T17:05:23.778Z,58.60
2022-10-24T17:06:26.048Z,58.57
2022-10-24T17:07:28.117Z,58.57
2022-10-24T17:08:31.388Z,58.61
2022-10-24T17:09:34.545Z,58.59
2022-10-24T17:10:37.647Z,58.62
2022-10-24T17:11:45.290Z,58.63
2022-10-24T17:12:45.649Z,58.65
2022-10-24T17:13:48.490Z,58.69
2022-10-24T17:14:51.804Z,58.71
2022-10-24T17:15:55.299Z,58.70
2022-10-24T17:16:57.442Z,58.68
2022-10-24T17:18:00.278Z,58.69
2022-10-24T19:09:12.915Z,75.32
2022-10-24T19:11:32.778Z,75.07
2022-10-24T19:12:36.554Z,75.01
2022-10-24T19:13:39.082Z,74.77
2022-10-24T19:14:42.077Z,74.52
2022-10-24T19:15:51.035Z,74.30
2022-10-24T19:16:53.424Z,74.15
2022-10-24T19:17:55.737Z,73.88
2022-10-24T19:18:59.144Z,73.44
2022-10-24T19:20:01.465Z,73.06
2022-10-24T19:21:06.677Z,72.68
2022-10-24T19:22:08.910Z,72.29
2022-10-24T19:23:13.239Z,71.96
2022-10-24T19:24:15.442Z,71.29
2022-10-24T19:25:17.778Z,70.77
2022-10-24T19:26:24.470Z,70.41
2022-10-24T19:27:28.379Z,69.96
2022-10-24T19:28:32.595Z,69.53
2022-10-24T19:29:36.216Z,69.24
2022-10-24T19:30:39.969Z,68.86
2022-10-24T19:31:42.209Z,68.25
2022-10-24T19:32:45.868Z,68.07
2022-10-24T19:33:48.925Z,67.67
2022-10-24T19:34:52.083Z,67.32
2022-10-24T19:35:54.278Z,66.92
2022-10-24T19:36:57.597Z,66.69
2022-10-24T19:37:59.710Z,66.32
2022-10-24T19:39:03.406Z,65.95
2022-10-24T19:40:10.915Z,65.53
2022-10-24T19:41:13.156Z,65.18
2022-10-24T19:42:16.646Z,64.94
2022-10-24T19:43:20.090Z,64.67
2022-10-24T19:44:22.706Z,64.34
2022-10-24T19:45:26.502Z,64.12
2022-10-24T19:46:29.287Z,63.89
2022-10-24T19:47:31.570Z,63.47
2022-10-24T19:48:35.210Z,63.37
2022-10-24T19:49:38.901Z,63.17
2022-10-24T19:50:42.201Z,62.94
2022-10-24T19:51:45.258Z,62.71
2022-10-24T19:52:48.059Z,62.41
2022-10-24T19:53:51.340Z,62.40
2022-10-24T19:54:54.067Z,62.16
2022-10-24T19:55:56.747Z,62.05
2022-10-24T19:56:58.957Z,61.87
2022-10-24T19:58:01.572Z,61.68
2022-10-24T19:59:04.990Z,61.46
2022-10-24T20:00:08.806Z,61.35
2022-10-24T20:01:16.050Z,61.25
2022-10-24T20:02:18.417Z,61.08
2022-10-24T20:03:22.131Z,61.04
2022-10-24T20:04:24.346Z,60.99
2022-10-24T20:05:26.976Z,61.00
2022-10-24T20:06:31.050Z,60.95
2022-10-24T20:07:33.967Z,60.81
2022-10-24T20:08:36.287Z,60.78
2022-10-24T20:09:38.731Z,60.70
2022-10-24T20:10:40.957Z,60.29
2022-10-24T20:11:44.469Z,60.02
2022-10-24T20:12:47.724Z,59.79
2022-10-24T20:13:52.263Z,60.21
2022-10-24T20:14:57.354Z,60.28
2022-10-24T20:16:01.179Z,60.15
2022-10-24T20:17:03.455Z,59.92
2022-10-24T20:18:05.533Z,59.56
2022-10-24T20:19:08.208Z,59.50
2022-10-24T20:20:11.030Z,59.20
2022-10-24T20:21:15.750Z,59.38
2022-10-24T20:22:17.988Z,59.13
2022-10-24T20:23:20.729Z,58.99
2022-10-24T20:24:23.556Z,58.88
2022-10-24T20:25:27.003Z,59.04
2022-10-24T20:26:30.203Z,59.11
2022-10-24T20:27:32.441Z,59.14
2022-10-24T20:29:52.987Z,58.64
2022-10-24T20:30:55.864Z,58.74
2022-10-24T20:31:58.539Z,58.80
2022-10-24T20:33:00.667Z,58.71